sensor_id;sensor_type;location;lat;lon;timestamp;pressure;altitude;pressure_sealevel;temperature;humidity
15634;BME280;14654;48.898;8.308;2023-06-14T00:02:19;99739.06;;;16.00;83.90
15634;BME280;14654;48.898;8.308;2023-06-14T00:04:44;99739.16;;;15.97;83.39
15634;BME280;14654;48.898;8.308;2023-06-14T00:07:10;99747.25;;;15.91;83.39
15634;BME280;14654;48.898;8.308;2023-06-14T00:09:38;99744.84;;;15.84;82.99
15634;BME280;14654;48.898;8.308;2023-06-14T00:12:04;99747.84;;;15.75;82.34
15634;BME280;14654;48.898;8.308;2023-06-14T00:14:31;99740.34;;;15.66;81.26
15634;BME280;14654;48.898;8.308;2023-06-14T00:17:03;99741.69;;;15.54;80.72
15634;BME280;14654;48.898;8.308;2023-06-14T00:19:28;99748.16;;;15.44;80.67
15634;BME280;14654;48.898;8.308;2023-06-14T00:21:55;99738.94;;;15.35;80.89
15634;BME280;14654;48.898;8.308;2023-06-14T00:24:21;99738.25;;;15.30;80.98
15634;BME280;14654;48.898;8.308;2023-06-14T00:26:47;99740.16;;;15.24;80.70
15634;BME280;14654;48.898;8.308;2023-06-14T00:29:12;99737.75;;;15.20;80.71
15634;BME280;14654;48.898;8.308;2023-06-14T00:31:37;99734.41;;;15.16;80.66
15634;BME280;14654;48.898;8.308;2023-06-14T00:34:03;99730.94;;;15.16;81.16
15634;BME280;14654;48.898;8.308;2023-06-14T00:36:28;99724.88;;;15.15;80.73
15634;BME280;14654;48.898;8.308;2023-06-14T00:38:53;99730.91;;;15.17;81.50
15634;BME280;14654;48.898;8.308;2023-06-14T00:41:19;99724.78;;;15.18;82.43
15634;BME280;14654;48.898;8.308;2023-06-14T00:43:44;99731.69;;;15.19;81.93
15634;BME280;14654;48.898;8.308;2023-06-14T00:46:09;99733.44;;;15.19;81.73
15634;BME280;14654;48.898;8.308;2023-06-14T00:48:36;99734.28;;;15.19;81.99
15634;BME280;14654;48.898;8.308;2023-06-14T00:51:02;99724.78;;;15.18;82.05
15634;BME280;14654;48.898;8.308;2023-06-14T00:53:29;99732.69;;;15.15;82.38
15634;BME280;14654;48.898;8.308;2023-06-14T00:55:56;99738.84;;;15.13;83.16
15634;BME280;14654;48.898;8.308;2023-06-14T00:58:22;99732.13;;;15.07;83.24
15634;BME280;14654;48.898;8.308;2023-06-14T01:00:47;99736.59;;;15.03;82.92
15634;BME280;14654;48.898;8.308;2023-06-14T01:03:13;99723.81;;;14.97;83.57
15634;BME280;14654;48.898;8.308;2023-06-14T01:05:44;99730.97;;;14.90;83.62
15634;BME280;14654;48.898;8.308;2023-06-14T01:08:24;99730.22;;;14.87;83.82
15634;BME280;14654;48.898;8.308;2023-06-14T01:10:59;99730.41;;;14.82;84.78
15634;BME280;14654;48.898;8.308;2023-06-14T01:15:56;99734.97;;;14.75;84.47
15634;BME280;14654;48.898;8.308;2023-06-14T01:18:22;99739.47;;;14.72;84.30
15634;BME280;14654;48.898;8.308;2023-06-14T01:20:49;99742.06;;;14.72;84.99
15634;BME280;14654;48.898;8.308;2023-06-14T01:23:25;99739.56;;;14.67;85.07
15634;BME280;14654;48.898;8.308;2023-06-14T01:25:58;99747.59;;;14.61;85.09
15634;BME280;14654;48.898;8.308;2023-06-14T01:28:25;99739.16;;;14.54;84.73
15634;BME280;14654;48.898;8.308;2023-06-14T01:30:54;99740.25;;;14.47;84.61
15634;BME280;14654;48.898;8.308;2023-06-14T01:33:22;99741.31;;;14.41;84.34
15634;BME280;14654;48.898;8.308;2023-06-14T01:35:50;99738.97;;;14.33;84.20
15634;BME280;14654;48.898;8.308;2023-06-14T01:38:20;99739.28;;;14.24;84.65
15634;BME280;14654;48.898;8.308;2023-06-14T01:40:47;99743.84;;;14.17;84.74
15634;BME280;14654;48.898;8.308;2023-06-14T01:43:13;99745.81;;;14.09;85.08
15634;BME280;14654;48.898;8.308;2023-06-14T01:45:40;99739.03;;;14.05;85.05
15634;BME280;14654;48.898;8.308;2023-06-14T01:48:07;99747.03;;;13.99;85.22
15634;BME280;14654;48.898;8.308;2023-06-14T01:50:32;99746.31;;;13.94;84.89
15634;BME280;14654;48.898;8.308;2023-06-14T01:52:58;99745.56;;;13.90;85.42
15634;BME280;14654;48.898;8.308;2023-06-14T01:55:23;99749.13;;;13.87;86.11
15634;BME280;14654;48.898;8.308;2023-06-14T01:57:50;99740.56;;;13.84;86.08
15634;BME280;14654;48.898;8.308;2023-06-14T02:00:16;99752.81;;;13.80;86.36
15634;BME280;14654;48.898;8.308;2023-06-14T02:02:43;99749.44;;;13.77;86.47
15634;BME280;14654;48.898;8.308;2023-06-14T02:05:08;99746.03;;;13.75;86.39
15634;BME280;14654;48.898;8.308;2023-06-14T02:07:35;99744.44;;;13.70;86.25
15634;BME280;14654;48.898;8.308;2023-06-14T02:10:01;99746.25;;;13.68;85.64
15634;BME280;14654;48.898;8.308;2023-06-14T02:12:26;99751.56;;;13.64;85.88
15634;BME280;14654;48.898;8.308;2023-06-14T02:14:52;99749.09;;;13.61;86.11
15634;BME280;14654;48.898;8.308;2023-06-14T02:17:17;99750.06;;;13.56;86.16
15634;BME280;14654;48.898;8.308;2023-06-14T02:19:43;99746.66;;;13.54;86.34
15634;BME280;14654;48.898;8.308;2023-06-14T02:22:08;99748.50;;;13.51;85.94
15634;BME280;14654;48.898;8.308;2023-06-14T02:24:33;99748.53;;;13.49;86.07
15634;BME280;14654;48.898;8.308;2023-06-14T02:26:59;99747.78;;;13.46;86.29
15634;BME280;14654;48.898;8.308;2023-06-14T02:29:25;99747.84;;;13.43;86.22
15634;BME280;14654;48.898;8.308;2023-06-14T02:31:50;99741.00;;;13.40;86.34
15634;BME280;14654;48.898;8.308;2023-06-14T02:34:16;99745.38;;;13.38;86.04
15634;BME280;14654;48.898;8.308;2023-06-14T02:36:45;99752.34;;;13.36;86.66
15634;BME280;14654;48.898;8.308;2023-06-14T02:39:11;99755.09;;;13.31;86.59
15634;BME280;14654;48.898;8.308;2023-06-14T02:41:36;99758.63;;;13.29;86.85
15634;BME280;14654;48.898;8.308;2023-06-14T02:44:01;99758.72;;;13.25;86.86
15634;BME280;14654;48.898;8.308;2023-06-14T02:46:27;99764.00;;;13.22;86.98
15634;BME280;14654;48.898;8.308;2023-06-14T02:48:52;99766.72;;;13.18;86.98
15634;BME280;14654;48.898;8.308;2023-06-14T02:51:17;99762.38;;;13.18;86.64
15634;BME280;14654;48.898;8.308;2023-06-14T02:53:43;99762.38;;;13.18;86.69
15634;BME280;14654;48.898;8.308;2023-06-14T02:56:09;99761.47;;;13.19;86.76
15634;BME280;14654;48.898;8.308;2023-06-14T02:58:36;99766.66;;;13.21;86.83
15634;BME280;14654;48.898;8.308;2023-06-14T03:01:01;99764.88;;;13.23;87.34
15634;BME280;14654;48.898;8.308;2023-06-14T03:03:29;99769.13;;;13.25;87.32
15634;BME280;14654;48.898;8.308;2023-06-14T03:05:55;99768.72;;;13.41;83.46
15634;BME280;14654;48.898;8.308;2023-06-14T03:08:20;99766.81;;;13.46;84.25
15634;BME280;14654;48.898;8.308;2023-06-14T03:10:46;99774.94;;;13.65;84.07
15634;BME280;14654;48.898;8.308;2023-06-14T03:13:15;99780.94;;;13.67;84.49
15634;BME280;14654;48.898;8.308;2023-06-14T03:15:42;99791.22;;;13.70;85.26
15634;BME280;14654;48.898;8.308;2023-06-14T03:18:08;99785.09;;;13.73;85.57
15634;BME280;14654;48.898;8.308;2023-06-14T03:20:35;99787.72;;;13.73;85.40
15634;BME280;14654;48.898;8.308;2023-06-14T03:23:01;99792.03;;;13.72;84.42
15634;BME280;14654;48.898;8.308;2023-06-14T03:25:27;99789.44;;;13.72;84.31
15634;BME280;14654;48.898;8.308;2023-06-14T03:27:57;99798.91;;;13.75;84.18
15634;BME280;14654;48.898;8.308;2023-06-14T03:30:23;99801.47;;;13.77;84.41
15634;BME280;14654;48.898;8.308;2023-06-14T03:32:48;99796.25;;;13.77;83.97
15634;BME280;14654;48.898;8.308;2023-06-14T03:35:14;99799.81;;;13.74;81.75
15634;BME280;14654;48.898;8.308;2023-06-14T03:37:45;99805.03;;;13.72;81.19
15634;BME280;14654;48.898;8.308;2023-06-14T03:40:12;99808.53;;;13.71;79.05
15634;BME280;14654;48.898;8.308;2023-06-14T03:42:38;99802.66;;;13.65;78.87
15634;BME280;14654;48.898;8.308;2023-06-14T03:45:05;99806.09;;;13.67;79.08
15634;BME280;14654;48.898;8.308;2023-06-14T03:47:31;99808.53;;;13.71;79.26
15634;BME280;14654;48.898;8.308;2023-06-14T03:49:57;99810.97;;;13.78;78.90
15634;BME280;14654;48.898;8.308;2023-06-14T03:52:22;99811.72;;;13.81;78.91
15634;BME280;14654;48.898;8.308;2023-06-14T03:54:48;99815.56;;;13.98;78.93
15634;BME280;14654;48.898;8.308;2023-06-14T03:57:14;99817.50;;;14.20;79.45
15634;BME280;14654;48.898;8.308;2023-06-14T03:59:40;99822.97;;;14.39;80.02
15634;BME280;14654;48.898;8.308;2023-06-14T04:02:06;99824.84;;;14.60;80.10
15634;BME280;14654;48.898;8.308;2023-06-14T04:04:32;99832.63;;;14.62;79.79
15634;BME280;14654;48.898;8.308;2023-06-14T04:06:57;99836.81;;;14.68;79.88
15634;BME280;14654;48.898;8.308;2023-06-14T04:09:26;99827.16;;;14.71;79.12
15634;BME280;14654;48.898;8.308;2023-06-14T04:11:52;99833.59;;;14.86;79.22
15634;BME280;14654;48.898;8.308;2023-06-14T04:14:19;99834.50;;;14.85;78.53
15634;BME280;14654;48.898;8.308;2023-06-14T04:16:45;99841.41;;;14.86;78.06
15634;BME280;14654;48.898;8.308;2023-06-14T04:19:11;99833.13;;;15.00;78.00
15634;BME280;14654;48.898;8.308;2023-06-14T04:21:36;99844.44;;;15.24;77.90
15634;BME280;14654;48.898;8.308;2023-06-14T04:24:02;99846.66;;;15.35;77.13
15634;BME280;14654;48.898;8.308;2023-06-14T04:26:27;99850.09;;;15.36;77.03
15634;BME280;14654;48.898;8.308;2023-06-14T04:28:55;99854.56;;;15.34;77.14
15634;BME280;14654;48.898;8.308;2023-06-14T04:31:22;99851.94;;;15.34;77.13
15634;BME280;14654;48.898;8.308;2023-06-14T04:33:50;99856.19;;;15.36;77.17
15634;BME280;14654;48.898;8.308;2023-06-14T04:36:18;99858.53;;;15.44;77.18
15634;BME280;14654;48.898;8.308;2023-06-14T04:38:44;99857.72;;;15.66;76.75
15634;BME280;14654;48.898;8.308;2023-06-14T04:41:11;99858.69;;;16.11;75.74
15634;BME280;14654;48.898;8.308;2023-06-14T04:43:37;99862.16;;;16.56;73.63
15634;BME280;14654;48.898;8.308;2023-06-14T04:46:06;99863.53;;;17.08;73.20
15634;BME280;14654;48.898;8.308;2023-06-14T04:48:38;99861.28;;;17.19;71.66
15634;BME280;14654;48.898;8.308;2023-06-14T04:51:06;99861.75;;;17.68;71.19
15634;BME280;14654;48.898;8.308;2023-06-14T04:53:31;99868.75;;;17.87;70.51
15634;BME280;14654;48.898;8.308;2023-06-14T04:55:56;99864.34;;;17.88;70.16
15634;BME280;14654;48.898;8.308;2023-06-14T04:58:22;99881.72;;;17.90;70.08
15634;BME280;14654;48.898;8.308;2023-06-14T05:00:48;99876.47;;;18.28;69.69
15634;BME280;14654;48.898;8.308;2023-06-14T05:03:13;99882.47;;;18.31;69.51
15634;BME280;14654;48.898;8.308;2023-06-14T05:05:40;99883.66;;;18.42;68.58
15634;BME280;14654;48.898;8.308;2023-06-14T05:08:06;99891.56;;;18.78;68.46
15634;BME280;14654;48.898;8.308;2023-06-14T05:10:31;99882.88;;;18.77;68.46
15634;BME280;14654;48.898;8.308;2023-06-14T05:12:56;99885.56;;;18.93;68.14
15634;BME280;14654;48.898;8.308;2023-06-14T05:15:22;99879.50;;;19.10;68.53
15634;BME280;14654;48.898;8.308;2023-06-14T05:17:50;99885.50;;;19.63;67.17
15634;BME280;14654;48.898;8.308;2023-06-14T05:20:20;99876.81;;;19.45;67.18
15634;BME280;14654;48.898;8.308;2023-06-14T05:22:46;99883.91;;;19.77;67.06
15634;BME280;14654;48.898;8.308;2023-06-14T05:25:11;99891.84;;;19.08;67.71
15634;BME280;14654;48.898;8.308;2023-06-14T05:27:36;99899.00;;;19.73;66.56
15634;BME280;14654;48.898;8.308;2023-06-14T05:30:02;99891.66;;;19.96;67.03
15634;BME280;14654;48.898;8.308;2023-06-14T05:32:29;99893.56;;;20.10;66.37
15634;BME280;14654;48.898;8.308;2023-06-14T05:34:55;99895.53;;;19.55;66.92
15634;BME280;14654;48.898;8.308;2023-06-14T05:37:20;99905.88;;;19.92;66.27
15634;BME280;14654;48.898;8.308;2023-06-14T05:39:45;99903.78;;;19.99;65.65
15634;BME280;14654;48.898;8.308;2023-06-14T05:42:10;99910.16;;;19.77;66.98
15634;BME280;14654;48.898;8.308;2023-06-14T05:44:36;99915.91;;;20.17;65.84
15634;BME280;14654;48.898;8.308;2023-06-14T05:47:01;99910.09;;;20.59;65.56
15634;BME280;14654;48.898;8.308;2023-06-14T05:49:27;99913.63;;;21.20;63.30
15634;BME280;14654;48.898;8.308;2023-06-14T05:51:52;99910.00;;;20.92;64.33
15634;BME280;14654;48.898;8.308;2023-06-14T05:54:17;99913.78;;;21.02;63.90
15634;BME280;14654;48.898;8.308;2023-06-14T05:56:43;99903.66;;;20.80;63.58
15634;BME280;14654;48.898;8.308;2023-06-14T05:59:08;99914.66;;;20.87;63.67
15634;BME280;14654;48.898;8.308;2023-06-14T06:01:33;99920.03;;;20.05;64.83
15634;BME280;14654;48.898;8.308;2023-06-14T06:04:02;99917.78;;;19.82;66.43
15634;BME280;14654;48.898;8.308;2023-06-14T06:06:27;99923.03;;;19.82;65.49
15634;BME280;14654;48.898;8.308;2023-06-14T06:08:53;99922.19;;;19.47;66.58
15634;BME280;14654;48.898;8.308;2023-06-14T06:11:18;99928.03;;;19.19;66.87
15634;BME280;14654;48.898;8.308;2023-06-14T06:13:44;99925.59;;;19.14;67.90
15634;BME280;14654;48.898;8.308;2023-06-14T06:16:09;99920.41;;;19.82;66.37
15634;BME280;14654;48.898;8.308;2023-06-14T06:18:34;99930.63;;;19.88;66.53
15634;BME280;14654;48.898;8.308;2023-06-14T06:21:00;99938.91;;;19.80;65.86
15634;BME280;14654;48.898;8.308;2023-06-14T06:23:26;99931.31;;;19.91;64.99
15634;BME280;14654;48.898;8.308;2023-06-14T06:25:51;99922.94;;;19.83;66.60
15634;BME280;14654;48.898;8.308;2023-06-14T06:28:17;99927.19;;;20.19;65.32
15634;BME280;14654;48.898;8.308;2023-06-14T06:30:42;99930.38;;;20.08;66.14
15634;BME280;14654;48.898;8.308;2023-06-14T06:33:08;99927.78;;;20.40;65.41
15634;BME280;14654;48.898;8.308;2023-06-14T06:35:33;99936.88;;;20.65;64.52
15634;BME280;14654;48.898;8.308;2023-06-14T06:37:59;99931.84;;;20.30;65.47
15634;BME280;14654;48.898;8.308;2023-06-14T06:40:25;99932.44;;;20.19;65.65
15634;BME280;14654;48.898;8.308;2023-06-14T06:42:50;99944.28;;;19.94;66.09
15634;BME280;14654;48.898;8.308;2023-06-14T06:45:16;99940.56;;;20.31;66.27
15634;BME280;14654;48.898;8.308;2023-06-14T06:47:41;99943.09;;;20.80;64.99
15634;BME280;14654;48.898;8.308;2023-06-14T06:50:07;99945.28;;;21.19;63.78
15634;BME280;14654;48.898;8.308;2023-06-14T06:52:33;99950.28;;;21.68;63.87
15634;BME280;14654;48.898;8.308;2023-06-14T06:54:58;99942.06;;;21.87;63.03
15634;BME280;14654;48.898;8.308;2023-06-14T06:57:23;99954.41;;;21.72;63.10
15634;BME280;14654;48.898;8.308;2023-06-14T06:59:49;99943.19;;;21.40;62.94
15634;BME280;14654;48.898;8.308;2023-06-14T07:02:15;99944.63;;;21.60;63.27
15634;BME280;14654;48.898;8.308;2023-06-14T07:04:41;99950.88;;;21.43;63.45
15634;BME280;14654;48.898;8.308;2023-06-14T07:07:06;99950.66;;;21.62;63.78
15634;BME280;14654;48.898;8.308;2023-06-14T07:09:32;99961.28;;;21.60;63.44
15634;BME280;14654;48.898;8.308;2023-06-14T07:11:57;99961.69;;;20.77;64.29
15634;BME280;14654;48.898;8.308;2023-06-14T07:14:22;99956.94;;;21.88;64.00
15634;BME280;14654;48.898;8.308;2023-06-14T07:16:49;99961.81;;;21.21;62.90
15634;BME280;14654;48.898;8.308;2023-06-14T07:19:14;99964.97;;;20.81;64.71
15634;BME280;14654;48.898;8.308;2023-06-14T07:21:40;99971.25;;;20.94;63.91
15634;BME280;14654;48.898;8.308;2023-06-14T07:24:05;99972.53;;;20.55;65.07
15634;BME280;14654;48.898;8.308;2023-06-14T07:26:31;99973.28;;;20.89;65.79
15634;BME280;14654;48.898;8.308;2023-06-14T07:28:57;99970.44;;;20.78;65.02
15634;BME280;14654;48.898;8.308;2023-06-14T07:31:22;99972.69;;;21.00;65.44
15634;BME280;14654;48.898;8.308;2023-06-14T07:33:47;99980.31;;;20.89;64.99
15634;BME280;14654;48.898;8.308;2023-06-14T07:36:13;99988.63;;;21.27;64.74
15634;BME280;14654;48.898;8.308;2023-06-14T07:38:38;99988.91;;;21.23;64.60
15634;BME280;14654;48.898;8.308;2023-06-14T07:41:05;99982.88;;;20.58;65.75
15634;BME280;14654;48.898;8.308;2023-06-14T07:43:30;99982.78;;;20.60;65.46
15634;BME280;14654;48.898;8.308;2023-06-14T07:45:56;99981.91;;;21.07;65.30
15634;BME280;14654;48.898;8.308;2023-06-14T07:48:22;99981.88;;;21.23;65.39
15634;BME280;14654;48.898;8.308;2023-06-14T07:50:47;99993.53;;;21.78;63.99
15634;BME280;14654;48.898;8.308;2023-06-14T07:53:13;99980.28;;;21.66;64.04
15634;BME280;14654;48.898;8.308;2023-06-14T07:55:38;99987.81;;;21.41;64.53
15634;BME280;14654;48.898;8.308;2023-06-14T07:58:05;99982.00;;;21.81;64.00
15634;BME280;14654;48.898;8.308;2023-06-14T08:00:31;99986.88;;;21.42;63.12
15634;BME280;14654;48.898;8.308;2023-06-14T08:02:57;99986.00;;;21.27;64.03
15634;BME280;14654;48.898;8.308;2023-06-14T08:05:24;99988.66;;;21.42;64.28
15634;BME280;14654;48.898;8.308;2023-06-14T08:07:51;99970.34;;;21.85;64.08
15634;BME280;14654;48.898;8.308;2023-06-14T08:10:16;99987.72;;;21.88;64.33
15634;BME280;14654;48.898;8.308;2023-06-14T08:12:41;99990.22;;;22.18;63.07
15634;BME280;14654;48.898;8.308;2023-06-14T08:15:07;99988.78;;;22.00;63.38
15634;BME280;14654;48.898;8.308;2023-06-14T08:17:33;99986.69;;;21.90;63.93
15634;BME280;14654;48.898;8.308;2023-06-14T08:19:58;99994.41;;;21.93;63.58
15634;BME280;14654;48.898;8.308;2023-06-14T08:22:24;100000.59;;;21.78;64.47
15634;BME280;14654;48.898;8.308;2023-06-14T08:24:50;99982.06;;;21.65;64.27
15634;BME280;14654;48.898;8.308;2023-06-14T08:27:15;99995.44;;;21.76;63.65
15634;BME280;14654;48.898;8.308;2023-06-14T08:29:40;99997.50;;;21.41;63.94
15634;BME280;14654;48.898;8.308;2023-06-14T08:32:06;99987.72;;;21.73;63.74
15634;BME280;14654;48.898;8.308;2023-06-14T08:34:32;99992.06;;;21.74;63.50
15634;BME280;14654;48.898;8.308;2023-06-14T08:36:57;99992.34;;;21.70;63.86
15634;BME280;14654;48.898;8.308;2023-06-14T08:39:23;99985.56;;;22.09;62.96
15634;BME280;14654;48.898;8.308;2023-06-14T08:41:48;99978.28;;;22.13;63.52
15634;BME280;14654;48.898;8.308;2023-06-14T08:44:18;99975.78;;;21.97;62.89
15634;BME280;14654;48.898;8.308;2023-06-14T08:46:43;99984.97;;;21.75;62.89
15634;BME280;14654;48.898;8.308;2023-06-14T08:49:11;100005.22;;;22.03;62.28
15634;BME280;14654;48.898;8.308;2023-06-14T08:51:37;99987.91;;;21.85;62.74
15634;BME280;14654;48.898;8.308;2023-06-14T08:54:03;99992.41;;;21.97;62.96
15634;BME280;14654;48.898;8.308;2023-06-14T08:56:30;99992.22;;;21.71;62.41
15634;BME280;14654;48.898;8.308;2023-06-14T08:58:59;99978.22;;;21.85;62.33
15634;BME280;14654;48.898;8.308;2023-06-14T09:01:36;99984.97;;;21.89;62.50
15634;BME280;14654;48.898;8.308;2023-06-14T09:04:02;99999.94;;;21.60;62.61
15634;BME280;14654;48.898;8.308;2023-06-14T09:06:28;99979.25;;;21.83;63.33
15634;BME280;14654;48.898;8.308;2023-06-14T09:08:54;99993.19;;;21.99;61.41
15634;BME280;14654;48.898;8.308;2023-06-14T09:11:22;99983.88;;;21.93;61.99
15634;BME280;14654;48.898;8.308;2023-06-14T09:13:49;99991.28;;;22.16;61.60
15634;BME280;14654;48.898;8.308;2023-06-14T09:16:14;99983.53;;;22.27;61.98
15634;BME280;14654;48.898;8.308;2023-06-14T09:18:42;99991.84;;;22.35;60.36
15634;BME280;14654;48.898;8.308;2023-06-14T09:21:13;99983.25;;;22.61;60.68
15634;BME280;14654;48.898;8.308;2023-06-14T09:23:44;99986.19;;;22.42;61.23
15634;BME280;14654;48.898;8.308;2023-06-14T09:26:17;99997.56;;;22.57;61.88
15634;BME280;14654;48.898;8.308;2023-06-14T09:28:45;100001.28;;;22.67;61.35
15634;BME280;14654;48.898;8.308;2023-06-14T09:31:15;100002.84;;;22.57;62.12
15634;BME280;14654;48.898;8.308;2023-06-14T09:33:45;99980.69;;;22.59;60.60
15634;BME280;14654;48.898;8.308;2023-06-14T09:36:18;99993.03;;;22.59;60.59
15634;BME280;14654;48.898;8.308;2023-06-14T09:38:53;99994.69;;;22.74;60.13
15634;BME280;14654;48.898;8.308;2023-06-14T09:41:19;99988.59;;;22.59;60.97
15634;BME280;14654;48.898;8.308;2023-06-14T09:43:46;100000.72;;;22.76;60.70
15634;BME280;14654;48.898;8.308;2023-06-14T09:46:12;99999.47;;;22.82;60.44
15634;BME280;14654;48.898;8.308;2023-06-14T09:48:38;100007.59;;;22.92;60.46
15634;BME280;14654;48.898;8.308;2023-06-14T09:51:10;100013.34;;;22.71;59.76
15634;BME280;14654;48.898;8.308;2023-06-14T09:53:36;100004.13;;;22.91;60.79
15634;BME280;14654;48.898;8.308;2023-06-14T09:56:02;100003.00;;;22.95;60.57
15634;BME280;14654;48.898;8.308;2023-06-14T09:58:29;100004.78;;;22.67;60.01
15634;BME280;14654;48.898;8.308;2023-06-14T10:00:55;100014.09;;;22.73;59.88
15634;BME280;14654;48.898;8.308;2023-06-14T10:03:27;100006.00;;;22.76;59.32
15634;BME280;14654;48.898;8.308;2023-06-14T10:05:55;100011.28;;;22.89;59.12
15634;BME280;14654;48.898;8.308;2023-06-14T10:08:25;99998.09;;;23.17;58.51
15634;BME280;14654;48.898;8.308;2023-06-14T10:10:53;100002.88;;;23.24;57.52
15634;BME280;14654;48.898;8.308;2023-06-14T10:13:18;99998.34;;;23.26;57.68
15634;BME280;14654;48.898;8.308;2023-06-14T10:23:50;99992.13;;;23.40;57.38
15634;BME280;14654;48.898;8.308;2023-06-14T10:26:23;99992.03;;;23.55;57.15
15634;BME280;14654;48.898;8.308;2023-06-14T10:29:21;100000.91;;;23.41;56.66
15634;BME280;14654;48.898;8.308;2023-06-14T10:31:48;99992.75;;;23.31;54.80
15634;BME280;14654;48.898;8.308;2023-06-14T10:34:26;99997.13;;;23.18;53.81
15634;BME280;14654;48.898;8.308;2023-06-14T10:37:05;99992.25;;;23.39;56.00
15634;BME280;14654;48.898;8.308;2023-06-14T10:39:33;99995.00;;;23.50;54.88
15634;BME280;14654;48.898;8.308;2023-06-14T10:42:02;99994.13;;;23.37;55.94
15634;BME280;14654;48.898;8.308;2023-06-14T10:46:55;99992.47;;;23.49;53.83
15634;BME280;14654;48.898;8.308;2023-06-14T10:49:43;99993.09;;;23.78;54.64
15634;BME280;14654;48.898;8.308;2023-06-14T10:52:12;99995.88;;;23.89;54.58
15634;BME280;14654;48.898;8.308;2023-06-14T10:55:04;99991.84;;;23.97;54.07
15634;BME280;14654;48.898;8.308;2023-06-14T10:57:30;99996.69;;;24.16;54.29
15634;BME280;14654;48.898;8.308;2023-06-14T10:59:59;99984.13;;;24.19;54.53
15634;BME280;14654;48.898;8.308;2023-06-14T11:05:28;99987.06;;;24.15;54.05
15634;BME280;14654;48.898;8.308;2023-06-14T11:08:27;99982.97;;;23.98;53.70
15634;BME280;14654;48.898;8.308;2023-06-14T11:10:54;99987.38;;;24.10;54.13
15634;BME280;14654;48.898;8.308;2023-06-14T11:13:24;99981.03;;;24.13;53.81
15634;BME280;14654;48.898;8.308;2023-06-14T11:15:50;99975.53;;;24.16;53.59
15634;BME280;14654;48.898;8.308;2023-06-14T11:18:18;99974.84;;;24.75;52.96
15634;BME280;14654;48.898;8.308;2023-06-14T11:20:46;99982.06;;;24.73;52.83
15634;BME280;14654;48.898;8.308;2023-06-14T11:23:11;99977.31;;;24.53;53.47
15634;BME280;14654;48.898;8.308;2023-06-14T11:25:36;99974.16;;;24.85;52.96
15634;BME280;14654;48.898;8.308;2023-06-14T11:28:02;99978.84;;;25.17;52.28
15634;BME280;14654;48.898;8.308;2023-06-14T11:30:27;99972.53;;;24.95;52.80
15634;BME280;14654;48.898;8.308;2023-06-14T11:32:54;99981.44;;;24.94;51.77
15634;BME280;14654;48.898;8.308;2023-06-14T11:35:23;99975.78;;;24.99;52.09
15634;BME280;14654;48.898;8.308;2023-06-14T11:37:49;99972.63;;;24.93;52.73
15634;BME280;14654;48.898;8.308;2023-06-14T11:40:17;99978.91;;;25.04;52.38
15634;BME280;14654;48.898;8.308;2023-06-14T11:42:42;99971.88;;;25.27;51.57
15634;BME280;14654;48.898;8.308;2023-06-14T11:45:09;99959.22;;;25.66;52.25
15634;BME280;14654;48.898;8.308;2023-06-14T11:47:36;99954.66;;;25.91;51.90
15634;BME280;14654;48.898;8.308;2023-06-14T11:50:03;99959.56;;;25.96;51.60
15634;BME280;14654;48.898;8.308;2023-06-14T11:52:28;99957.69;;;26.21;51.26
15634;BME280;14654;48.898;8.308;2023-06-14T11:54:54;99963.06;;;26.08;51.09
15634;BME280;14654;48.898;8.308;2023-06-14T11:57:20;99948.50;;;25.79;50.82
15634;BME280;14654;48.898;8.308;2023-06-14T11:59:46;99955.03;;;26.21;50.46
15634;BME280;14654;48.898;8.308;2023-06-14T12:02:15;99947.75;;;26.34;50.05
15634;BME280;14654;48.898;8.308;2023-06-14T12:04:41;99950.56;;;26.65;51.12
15634;BME280;14654;48.898;8.308;2023-06-14T12:07:14;99939.94;;;26.65;51.57
15634;BME280;14654;48.898;8.308;2023-06-14T12:10:03;99956.22;;;25.94;52.15
15634;BME280;14654;48.898;8.308;2023-06-14T12:12:35;99952.72;;;25.82;52.26
15634;BME280;14654;48.898;8.308;2023-06-14T12:15:03;99961.16;;;25.76;53.25
15634;BME280;14654;48.898;8.308;2023-06-14T12:17:32;99956.47;;;25.21;54.11
15634;BME280;14654;48.898;8.308;2023-06-14T12:19:57;99960.59;;;25.36;53.63
15634;BME280;14654;48.898;8.308;2023-06-14T12:22:22;99958.78;;;25.37;53.75
15634;BME280;14654;48.898;8.308;2023-06-14T12:24:48;99958.16;;;25.22;54.27
15634;BME280;14654;48.898;8.308;2023-06-14T12:27:14;99960.34;;;25.28;54.55
15634;BME280;14654;48.898;8.308;2023-06-14T12:29:44;99960.06;;;24.60;55.48
15634;BME280;14654;48.898;8.308;2023-06-14T12:32:09;99951.53;;;24.80;54.06
15634;BME280;14654;48.898;8.308;2023-06-14T12:34:35;99954.97;;;24.94;53.80
15634;BME280;14654;48.898;8.308;2023-06-14T12:37:00;99951.47;;;25.05;52.91
15634;BME280;14654;48.898;8.308;2023-06-14T12:39:26;99945.78;;;25.34;52.55
15634;BME280;14654;48.898;8.308;2023-06-14T12:41:51;99949.47;;;25.44;53.07
15634;BME280;14654;48.898;8.308;2023-06-14T12:44:17;99951.06;;;25.22;53.35
15634;BME280;14654;48.898;8.308;2023-06-14T12:46:42;99952.31;;;25.41;53.11
15634;BME280;14654;48.898;8.308;2023-06-14T12:49:10;99960.78;;;25.10;54.79
15634;BME280;14654;48.898;8.308;2023-06-14T12:51:36;99952.19;;;24.95;54.81
15634;BME280;14654;48.898;8.308;2023-06-14T12:54:01;99957.34;;;24.97;55.30
15634;BME280;14654;48.898;8.308;2023-06-14T12:56:27;99957.66;;;24.81;55.79
15634;BME280;14654;48.898;8.308;2023-06-14T12:58:52;99961.56;;;24.51;55.48
15634;BME280;14654;48.898;8.308;2023-06-14T13:01:18;99955.88;;;24.07;55.47
15634;BME280;14654;48.898;8.308;2023-06-14T13:03:44;99957.13;;;24.27;56.15
15634;BME280;14654;48.898;8.308;2023-06-14T13:06:09;99953.88;;;24.48;55.49
15634;BME280;14654;48.898;8.308;2023-06-14T13:08:35;99955.78;;;24.46;55.53
15634;BME280;14654;48.898;8.308;2023-06-14T13:11:00;99945.38;;;24.56;54.39
15634;BME280;14654;48.898;8.308;2023-06-14T13:13:25;99956.88;;;24.92;54.77
15634;BME280;14654;48.898;8.308;2023-06-14T13:15:51;99959.44;;;25.05;54.06